createdAt,value
2018-01-31T01:52:20.927Z,2.70
2018-01-31T01:54:26.648Z,2.70
2018-01-31T01:56:56.506Z,2.70
2018-01-31T01:59:28.013Z,2.70
2018-01-31T02:01:57.892Z,2.70
2018-01-31T02:04:27.757Z,2.70
2018-01-31T02:06:57.244Z,2.70
2018-01-31T02:09:26.917Z,2.60
2018-01-31T02:11:56.975Z,2.70
2018-01-31T02:14:26.892Z,2.60
2018-01-31T02:16:56.816Z,2.60
2018-01-31T02:19:26.698Z,2.50
2018-01-31T02:21:57.344Z,2.50
2018-01-31T02:24:27.965Z,2.40
2018-01-31T02:26:58.589Z,2.40
2018-01-31T02:29:29.557Z,2.40
2018-01-31T02:31:59.415Z,2.30
2018-01-31T02:34:29.267Z,2.30
2018-01-31T02:37:00.026Z,2.30
2018-01-31T02:42:27.403Z,2.30
2018-01-31T02:44:57.274Z,2.30
2018-01-31T02:47:27.123Z,2.30
2018-01-31T02:49:57.040Z,2.20
2018-01-31T02:52:26.882Z,2.20
2018-01-31T02:54:56.771Z,2.20
2018-01-31T02:57:26.784Z,2.20
2018-01-31T02:59:56.635Z,2.10
2018-01-31T03:02:26.516Z,2.10
2018-01-31T03:04:56.529Z,2.10
2018-01-31T03:07:26.547Z,2.10
2018-01-31T03:09:56.472Z,2.00
2018-01-31T03:12:26.376Z,1.90
2018-01-31T03:14:56.404Z,1.90
2018-01-31T03:17:26.412Z,1.90
2018-01-31T03:19:56.356Z,1.90
2018-01-31T03:22:26.211Z,1.80
2018-01-31T03:24:56.365Z,1.80
2018-01-31T03:27:26.280Z,1.80
2018-01-31T03:29:56.295Z,1.70
2018-01-31T03:32:25.826Z,1.70
2018-01-31T03:34:55.681Z,1.70
2018-01-31T03:37:25.325Z,1.80
2018-01-31T03:39:55.342Z,1.80
2018-01-31T03:42:25.266Z,1.70
2018-01-31T03:44:55.358Z,1.70
2018-01-31T03:47:25.599Z,1.70
2018-01-31T03:49:55.514Z,1.70
2018-01-31T03:52:25.476Z,1.70
2018-01-31T03:54:55.411Z,1.80
2018-01-31T03:57:26.001Z,1.90
2018-01-31T03:59:55.889Z,1.80
2018-01-31T04:02:25.707Z,1.80
2018-01-31T04:04:55.660Z,1.70
2018-01-31T04:07:25.575Z,1.70
2018-01-31T04:09:55.353Z,1.60
2018-01-31T04:12:25.179Z,1.50
2018-01-31T04:14:55.305Z,1.40
2018-01-31T04:17:25.112Z,1.40
2018-01-31T04:19:55.010Z,1.40
2018-01-31T04:22:24.744Z,1.40
2018-01-31T04:24:54.554Z,1.30
2018-01-31T04:27:24.551Z,1.30
2018-01-31T04:29:54.130Z,1.30
2018-01-31T04:32:23.696Z,1.30
2018-01-31T04:34:53.683Z,1.40
2018-01-31T04:37:23.229Z,1.40
2018-01-31T04:39:53.124Z,1.50
2018-01-31T04:42:22.979Z,1.50
2018-01-31T04:44:52.852Z,1.60
2018-01-31T04:47:22.663Z,1.60
2018-01-31T04:49:52.552Z,1.70
2018-01-31T04:52:22.475Z,1.70
2018-01-31T04:54:52.435Z,1.70
2018-01-31T04:57:22.267Z,1.70
2018-01-31T04:59:52.151Z,1.80
2018-01-31T05:02:22.143Z,1.80
2018-01-31T05:04:51.972Z,1.80
2018-01-31T05:07:21.970Z,1.80
2018-01-31T05:09:51.795Z,1.80
2018-01-31T05:12:21.655Z,1.70
2018-01-31T05:14:51.543Z,1.80
2018-01-31T05:17:21.637Z,1.80
2018-01-31T05:19:51.581Z,1.80
2018-01-31T05:22:21.397Z,1.80
2018-01-31T05:24:51.302Z,1.80
2018-01-31T05:27:21.187Z,1.90
2018-01-31T05:29:51.060Z,1.80
2018-01-31T05:32:20.910Z,1.90
2018-01-31T05:34:50.940Z,1.80
2018-01-31T05:37:20.759Z,1.90
2018-01-31T05:39:50.614Z,1.90
2018-01-31T05:42:22.017Z,1.90
2018-01-31T05:44:52.030Z,1.90
2018-01-31T05:47:21.940Z,1.90
2018-01-31T05:49:51.764Z,1.90
2018-01-31T05:52:21.615Z,1.90
2018-01-31T05:54:51.928Z,1.90
2018-01-31T05:57:23.283Z,2.00
2018-01-31T05:59:53.370Z,2.00
2018-01-31T06:02:23.375Z,2.00
2018-01-31T06:04:52.878Z,1.90
2018-01-31T06:07:23.019Z,2.00
2018-01-31T06:09:52.624Z,2.00
2018-01-31T06:12:22.471Z,2.00
2018-01-31T06:14:52.354Z,2.10
2018-01-31T06:17:22.248Z,2.10
2018-01-31T06:19:52.128Z,2.10
2018-01-31T06:22:21.774Z,2.20
2018-01-31T06:24:51.658Z,2.30
2018-01-31T06:27:21.551Z,2.30
2018-01-31T06:29:51.364Z,2.30
2018-01-31T06:32:21.432Z,2.30
2018-01-31T06:34:51.275Z,2.30
2018-01-31T06:37:21.266Z,2.40
2018-01-31T06:39:51.283Z,2.40
2018-01-31T06:42:21.148Z,2.40
2018-01-31T06:44:51.036Z,2.50
2018-01-31T06:47:20.887Z,2.50
2018-01-31T06:49:51.528Z,2.50
2018-01-31T06:52:22.186Z,2.50
2018-01-31T06:54:52.210Z,2.40
2018-01-31T06:57:22.365Z,2.50
2018-01-31T06:59:52.210Z,2.60
2018-01-31T07:02:22.844Z,2.70
2018-01-31T07:04:52.485Z,2.70
2018-01-31T07:07:22.467Z,2.70
2018-01-31T07:09:53.235Z,2.80
2018-01-31T07:12:23.993Z,2.70
2018-01-31T07:14:53.936Z,2.80
2018-01-31T07:17:25.399Z,2.80
2018-01-31T07:19:55.292Z,2.80
2018-01-31T07:22:25.131Z,2.90
2018-01-31T07:24:55.766Z,2.90
2018-01-31T07:27:26.379Z,2.90
2018-01-31T07:29:56.320Z,2.90
2018-01-31T07:32:26.908Z,3.00
2018-01-31T07:34:56.913Z,3.00
2018-01-31T07:37:26.739Z,3.10
2018-01-31T07:39:56.600Z,3.30
2018-01-31T07:42:27.281Z,3.30
2018-01-31T07:44:57.928Z,3.40
2018-01-31T07:47:28.016Z,3.40
2018-01-31T07:49:57.642Z,3.50
2018-01-31T07:52:27.563Z,3.50
2018-01-31T07:54:57.583Z,3.50
2018-01-31T07:57:27.563Z,3.60
2018-01-31T07:59:57.407Z,3.60
2018-01-31T08:02:27.232Z,3.70
2018-01-31T08:04:57.663Z,3.70
2018-01-31T08:07:27.496Z,3.80
2018-01-31T08:09:58.119Z,3.90
2018-01-31T08:12:27.981Z,3.80
2018-01-31T08:14:57.944Z,3.90
2018-01-31T08:17:27.777Z,3.90
2018-01-31T08:19:58.440Z,4.10
2018-01-31T08:22:28.456Z,4.10
2018-01-31T08:24:58.377Z,4.10
2018-01-31T08:27:29.167Z,4.10
2018-01-31T08:30:02.947Z,4.10
2018-01-31T08:32:32.801Z,4.10
2018-01-31T08:35:03.466Z,4.20
2018-01-31T08:37:33.375Z,4.20
2018-01-31T08:40:03.208Z,4.30
2018-01-31T08:42:33.151Z,4.30
2018-01-31T08:45:03.059Z,4.30
2018-01-31T08:47:33.044Z,4.40
2018-01-31T08:50:02.921Z,4.50
2018-01-31T08:52:33.069Z,4.60
2018-01-31T08:55:02.476Z,4.70
2018-01-31T08:57:32.500Z,4.70
2018-01-31T09:00:02.492Z,4.80
2018-01-31T09:02:32.044Z,4.80
2018-01-31T09:05:01.904Z,4.80
2018-01-31T09:07:32.475Z,4.90
2018-01-31T09:10:02.351Z,4.80
2018-01-31T09:12:33.112Z,5.00
2018-01-31T09:15:03.063Z,5.00
2018-01-31T09:17:32.962Z,5.10
2018-01-31T09:20:02.959Z,5.20
2018-01-31T09:22:31.952Z,5.20
2018-01-31T09:25:01.703Z,5.20
2018-01-31T09:27:33.360Z,5.20
2018-01-31T09:30:03.643Z,5.30
2018-01-31T09:32:33.337Z,5.40
2018-01-31T09:35:03.322Z,5.30
2018-01-31T09:37:33.286Z,5.30
2018-01-31T09:40:03.231Z,5.30
2018-01-31T09:42:32.854Z,5.30
2018-01-31T09:45:03.340Z,5.30
2018-01-31T09:47:33.316Z,5.30
2018-01-31T09:50:04.093Z,5.40
2018-01-31T09:52:34.937Z,5.30
2018-01-31T09:55:03.908Z,5.40
2018-01-31T09:57:33.989Z,5.40
2018-01-31T10:00:03.543Z,5.40
2018-01-31T10:02:33.167Z,5.40
2018-01-31T10:05:03.036Z,5.50
2018-01-31T10:07:32.881Z,5.50
2018-01-31T10:10:03.008Z,5.60
2018-01-31T10:12:32.870Z,5.60
2018-01-31T10:15:02.444Z,5.60
2018-01-31T10:17:32.297Z,5.70
2018-01-31T10:20:02.959Z,5.70
2018-01-31T10:22:32.545Z,5.70
2018-01-31T10:25:03.180Z,5.70
2018-01-31T10:27:33.807Z,5.70
2018-01-31T10:30:03.808Z,5.70
2018-01-31T10:32:33.699Z,5.70
2018-01-31T10:35:03.654Z,5.80
2018-01-31T10:37:34.270Z,5.80
2018-01-31T10:40:03.467Z,5.80
2018-01-31T10:42:33.358Z,5.80
2018-01-31T10:45:03.259Z,5.90
2018-01-31T10:47:33.099Z,5.90
2018-01-31T10:50:03.007Z,5.90
2018-01-31T10:52:32.794Z,6.00
2018-01-31T10:57:32.638Z,6.10
2018-01-31T11:00:02.483Z,6.10
2018-01-31T11:02:32.859Z,6.20
2018-01-31T11:05:02.738Z,6.20
2018-01-31T11:07:33.512Z,6.30
2018-01-31T11:10:03.389Z,6.30
2018-01-31T11:12:34.047Z,6.30
2018-01-31T11:15:03.564Z,6.30
2018-01-31T11:17:33.451Z,6.40
2018-01-31T11:20:03.358Z,6.40
2018-01-31T11:22:33.462Z,6.50
2018-01-31T11:25:03.390Z,6.50
2018-01-31T11:27:33.792Z,6.60
2018-01-31T11:30:03.771Z,6.60
2018-01-31T11:32:33.332Z,6.70
2018-01-31T11:35:02.876Z,6.70
2018-01-31T11:37:31.828Z,6.70
2018-01-31T11:40:01.675Z,6.80
2018-01-31T11:42:31.278Z,6.90
2018-01-31T11:45:00.807Z,6.90
2018-01-31T11:47:30.395Z,6.90
2018-01-31T11:50:00.008Z,7.00
2018-01-31T11:52:30.350Z,7.10
2018-01-31T11:54:59.915Z,7.10
2018-01-31T11:57:29.561Z,7.20
2018-01-31T11:59:59.135Z,7.30
2018-01-31T12:02:28.664Z,7.40
2018-01-31T12:04:58.248Z,7.50
2018-01-31T12:07:28.650Z,7.50
2018-01-31T12:09:59.015Z,7.60
2018-01-31T12:12:39.815Z,7.60
2018-01-31T12:15:20.621Z,7.70
2018-01-31T12:17:51.724Z,7.90
2018-01-31T12:20:32.587Z,7.80
2018-01-31T12:23:13.382Z,7.90
2018-01-31T12:25:54.093Z,8.00
2018-01-31T12:28:34.882Z,7.90
2018-01-31T12:31:15.871Z,7.90
2018-01-31T12:33:56.608Z,7.90
2018-01-31T12:36:37.653Z,8.00
2018-01-31T12:39:06.098Z,8.00
2018-01-31T12:41:34.579Z,8.00
2018-01-31T12:44:03.060Z,8.10
2018-01-31T12:46:43.969Z,8.10
2018-01-31T12:49:25.008Z,8.10
2018-01-31T12:55:06.333Z,8.10
2018-01-31T12:57:47.083Z,8.20
2018-01-31T13:00:27.875Z,8.20
2018-01-31T13:03:11.592Z,8.30
2018-01-31T13:05:52.258Z,8.20
2018-01-31T13:08:32.959Z,8.30
2018-01-31T13:14:10.786Z,8.20
2018-01-31T13:16:51.459Z,8.20
2018-01-31T13:19:26.161Z,8.20
2018-01-31T13:22:06.765Z,8.20
2018-01-31T13:24:47.353Z,8.20
2018-01-31T13:27:26.547Z,8.20
2018-01-31T13:30:07.392Z,8.20
2018-01-31T13:36:07.330Z,8.20
2018-01-31T13:38:47.912Z,8.20
2018-01-31T13:41:29.316Z,8.20
2018-01-31T13:47:08.229Z,8.10
2018-01-31T13:49:48.825Z,8.10
2018-01-31T13:52:29.171Z,8.20
2018-01-31T13:55:09.770Z,8.20
2018-01-31T13:57:50.341Z,8.20
2018-01-31T14:00:30.983Z,8.20
2018-01-31T14:03:24.482Z,8.20
2018-01-31T14:06:04.991Z,8.30
2018-01-31T14:08:45.651Z,8.30
2018-01-31T14:14:30.122Z,8.40
2018-01-31T14:17:10.627Z,8.40
2018-01-31T14:19:51.144Z,8.40
2018-01-31T14:22:32.538Z,8.40
2018-01-31T14:25:13.006Z,8.40
2018-01-31T14:27:53.669Z,8.50
2018-01-31T14:30:34.259Z,8.50
2018-01-31T14:33:14.507Z,8.60
2018-01-31T14:35:55.124Z,8.60
2018-01-31T14:38:23.323Z,8.60
2018-01-31T14:40:52.211Z,8.70
2018-01-31T14:43:21.100Z,8.70
2018-01-31T14:45:50.027Z,8.70
2018-01-31T14:48:18.308Z,8.70
2018-01-31T14:50:46.435Z,8.80
2018-01-31T14:53:14.732Z,8.80
2018-01-31T14:55:42.921Z,8.80
2018-01-31T14:58:11.072Z,8.80
2018-01-31T15:00:39.475Z,8.90
2018-01-31T15:03:07.671Z,8.90
2018-01-31T15:05:36.651Z,8.90
2018-01-31T15:08:04.838Z,9.00
2018-01-31T15:10:33.027Z,9.00
2018-01-31T15:13:01.179Z,9.00
2018-01-31T15:15:29.529Z,9.00
2018-01-31T15:17:57.661Z,9.00
2018-01-31T15:20:25.888Z,9.10
2018-01-31T15:22:54.283Z,9.00
2018-01-31T15:25:22.443Z,9.00
2018-01-31T15:27:50.643Z,9.10
2018-01-31T15:30:18.765Z,9.10
2018-01-31T15:32:46.941Z,9.10
2018-01-31T15:35:15.091Z,9.10
2018-01-31T15:37:43.264Z,9.10
2018-01-31T15:40:11.486Z,9.10
2018-01-31T15:42:39.706Z,9.10
2018-01-31T15:45:07.919Z,9.10
2018-01-31T15:47:37.024Z,9.10
2018-01-31T15:50:05.207Z,9.10
2018-01-31T15:52:33.388Z,9.10
2018-01-31T15:55:01.561Z,9.10
2018-01-31T15:57:29.731Z,9.10
2018-01-31T15:59:57.904Z,9.10
2018-01-31T16:02:26.078Z,9.10
2018-01-31T16:04:54.271Z,9.10
2018-01-31T16:07:22.436Z,9.20
2018-01-31T16:09:50.579Z,9.10
2018-01-31T16:12:18.775Z,9.10
2018-01-31T16:14:46.952Z,9.10
2018-01-31T16:17:16.298Z,9.10
2018-01-31T16:19:56.912Z,9.00
2018-01-31T16:22:26.591Z,9.00
2018-01-31T16:24:55.247Z,9.00
2018-01-31T16:27:23.891Z,9.10
2018-01-31T16:30:18.188Z,9.00
2018-01-31T16:35:43.768Z,9.10
2018-01-31T16:38:13.088Z,9.10
2018-01-31T16:40:42.476Z,9.10
2018-01-31T16:43:11.175Z,9.10
2018-01-31T16:45:40.507Z,9.10
2018-01-31T16:48:09.215Z,9.00
2018-01-31T16:50:37.867Z,8.90
2018-01-31T16:53:07.186Z,8.90
2018-01-31T16:55:36.583Z,8.70
2018-01-31T16:58:05.929Z,8.70
2018-01-31T17:00:35.254Z,8.70
2018-01-31T17:03:04.690Z,8.70
2018-01-31T17:05:33.990Z,8.60
2018-01-31T17:08:03.541Z,8.60
2018-01-31T17:10:32.887Z,8.60
2018-01-31T17:13:02.215Z,8.60
2018-01-31T17:15:32.224Z,8.60
2018-01-31T17:18:02.023Z,8.60
2018-01-31T17:20:32.628Z,8.60
2018-01-31T17:23:02.874Z,8.60
2018-01-31T17:25:33.507Z,8.60
2018-01-31T17:28:03.038Z,8.60
2018-01-31T17:30:32.940Z,8.60
2018-01-31T17:33:02.747Z,8.60
2018-01-31T17:35:32.664Z,8.60
2018-01-31T17:38:02.159Z,8.60
2018-01-31T17:40:32.791Z,8.60
2018-01-31T17:43:03.899Z,8.70
2018-01-31T17:45:33.864Z,8.70
2018-01-31T17:48:03.712Z,8.70
2018-01-31T17:50:33.578Z,8.70
2018-01-31T17:53:04.351Z,8.70
2018-01-31T17:55:34.223Z,8.70
2018-01-31T17:58:04.838Z,8.70
2018-01-31T18:00:34.719Z,8.70
2018-01-31T18:03:04.565Z,8.70
2018-01-31T18:05:34.451Z,8.80
2018-01-31T18:08:04.279Z,8.80
2018-01-31T18:10:34.187Z,8.80
2018-01-31T18:13:04.034Z,8.80
2018-01-31T18:15:34.690Z,8.80
2018-01-31T18:18:04.702Z,8.80
2018-01-31T18:20:34.561Z,8.80
2018-01-31T18:23:04.472Z,8.80
2018-01-31T18:25:33.364Z,8.90
2018-01-31T18:28:03.191Z,8.90
2018-01-31T18:30:33.092Z,8.90
2018-01-31T18:33:02.927Z,8.80
2018-01-31T18:35:32.755Z,8.80
2018-01-31T18:38:02.701Z,8.80
2018-01-31T18:40:32.714Z,8.80
2018-01-31T18:43:02.737Z,8.80
2018-01-31T18:45:32.340Z,8.80
2018-01-31T18:48:02.357Z,8.80
2018-01-31T18:50:32.211Z,8.80
2018-01-31T18:53:02.187Z,8.80
2018-01-31T18:55:32.205Z,8.80
2018-01-31T18:58:02.022Z,8.90
2018-01-31T19:00:31.879Z,8.90
2018-01-31T19:03:01.754Z,8.90
2018-01-31T19:05:31.601Z,8.90
2018-01-31T19:08:01.466Z,8.90
2018-01-31T19:10:32.057Z,8.90
2018-01-31T19:13:01.933Z,8.90
2018-01-31T19:15:31.766Z,8.90
2018-01-31T19:18:02.077Z,8.90
2018-01-31T19:20:31.910Z,8.90
2018-01-31T19:23:02.316Z,8.90
2018-01-31T19:25:31.969Z,8.90
2018-01-31T19:28:02.946Z,9.00
2018-01-31T19:30:32.862Z,9.00
2018-01-31T19:33:02.764Z,9.00
2018-01-31T19:35:33.392Z,9.00
2018-01-31T19:38:04.032Z,9.00
2018-01-31T19:40:33.865Z,9.10
2018-01-31T19:43:03.401Z,9.10
2018-01-31T19:45:33.237Z,9.10
2018-01-31T19:48:03.091Z,9.10
2018-01-31T19:50:32.936Z,9.10
2018-01-31T19:53:02.755Z,9.10
2018-01-31T19:55:32.934Z,9.20
2018-01-31T19:58:02.752Z,9.20
2018-01-31T20:00:32.662Z,9.20
2018-01-31T20:03:02.459Z,9.10
2018-01-31T20:05:33.067Z,8.90
2018-01-31T20:08:02.626Z,8.90
2018-01-31T20:10:32.367Z,8.90
2018-01-31T20:13:02.200Z,8.80
2018-01-31T20:15:32.081Z,8.70
2018-01-31T20:18:01.945Z,8.70
2018-01-31T20:20:32.532Z,8.60
2018-01-31T20:23:02.387Z,8.60
2018-01-31T20:25:33.008Z,8.40
2018-01-31T20:28:03.810Z,8.40
2018-01-31T20:30:33.723Z,8.30
2018-01-31T20:33:03.567Z,8.20
2018-01-31T20:35:33.411Z,8.00
2018-01-31T20:38:03.337Z,7.90
2018-01-31T20:40:34.268Z,7.90
2018-01-31T20:43:04.293Z,7.90
2018-01-31T20:45:34.247Z,7.90
2018-01-31T20:48:03.919Z,8.10
2018-01-31T20:50:33.938Z,8.20
2018-01-31T20:53:03.462Z,8.20
2018-01-31T20:55:33.028Z,8.00
2018-01-31T20:58:02.615Z,7.90
2018-01-31T21:00:32.444Z,7.80
2018-01-31T21:03:03.057Z,7.60
2018-01-31T21:05:32.813Z,7.60
2018-01-31T21:08:02.831Z,7.60
2018-01-31T21:10:32.855Z,7.60
2018-01-31T21:13:02.115Z,7.50
2018-01-31T21:15:31.952Z,7.50
2018-01-31T21:18:02.703Z,7.40
2018-01-31T21:20:32.561Z,7.40
2018-01-31T21:23:02.436Z,7.20
2018-01-31T21:25:32.347Z,7.20
2018-01-31T21:28:02.206Z,7.00
2018-01-31T21:30:32.016Z,7.00
2018-01-31T21:33:01.219Z,7.00
2018-01-31T21:35:31.078Z,6.90
2018-01-31T21:38:00.291Z,6.90
2018-01-31T21:40:29.463Z,6.80
2018-01-31T21:43:00.099Z,6.70
2018-01-31T21:45:29.951Z,6.70
2018-01-31T21:47:59.822Z,6.70
2018-01-31T21:50:30.405Z,6.70
2018-01-31T21:52:59.911Z,6.60
2018-01-31T21:55:29.777Z,6.60
2018-01-31T21:58:00.404Z,6.60
2018-01-31T22:00:30.880Z,6.70
2018-01-31T22:03:00.562Z,6.60
2018-01-31T22:05:30.577Z,6.60
2018-01-31T22:08:00.497Z,6.60
2018-01-31T22:10:30.309Z,6.60
2018-01-31T22:13:00.186Z,6.60
2018-01-31T22:15:30.011Z,6.60
2018-01-31T22:18:00.627Z,6.50
2018-01-31T22:20:30.448Z,6.50
2018-01-31T22:23:00.287Z,6.50
2018-01-31T22:25:30.136Z,6.50
2018-01-31T22:27:59.973Z,6.50
2018-01-31T22:30:29.887Z,6.50
2018-01-31T22:32:59.743Z,6.50
2018-01-31T22:35:29.595Z,6.50
2018-01-31T22:37:59.502Z,6.50
2018-01-31T22:40:29.342Z,6.50
2018-01-31T22:42:59.324Z,6.50
2018-01-31T22:45:29.156Z,6.40
2018-01-31T22:47:59.436Z,6.40
2018-01-31T22:50:29.343Z,6.40
2018-01-31T22:52:59.924Z,6.40
2018-01-31T22:55:29.794Z,6.40
2018-01-31T22:57:59.712Z,6.40
2018-01-31T23:00:29.669Z,6.30
2018-01-31T23:03:00.350Z,6.40
2018-01-31T23:05:30.495Z,6.40
2018-01-31T23:08:00.509Z,6.40
2018-01-31T23:10:30.450Z,6.40
2018-01-31T23:13:05.866Z,6.40
2018-01-31T23:15:36.213Z,6.40
2018-01-31T23:18:11.635Z,6.40
2018-01-31T23:20:41.855Z,6.40
2018-01-31T23:23:11.695Z,6.30
2018-01-31T23:25:41.508Z,6.30
2018-01-31T23:28:11.135Z,6.30
2018-01-31T23:30:41.398Z,6.30
2018-01-31T23:33:11.394Z,6.30
2018-01-31T23:35:40.939Z,6.30
2018-01-31T23:38:10.894Z,6.30
2018-01-31T23:40:41.280Z,6.30
2018-01-31T23:43:11.193Z,6.30
2018-01-31T23:45:41.004Z,6.30
2018-01-31T23:48:10.873Z,6.30
2018-01-31T23:50:40.532Z,6.30
2018-01-31T23:53:10.483Z,6.30
2018-01-31T23:55:40.587Z,6.30
2018-01-31T23:58:10.481Z,6.30
